Time;durP1;ratioP1;P1;durP2;ratioP2;P2;SDS_P1;SDS_P2;PMS_P1;PMS_P2;Temp;Humidity;BMP_temperature;BMP_pressure;BME280_temperature;BME280_humidity;BME280_pressure;Samples;Min_cycle;Max_cycle;Signal;HPM_P1;HPM_P2
2023/09/05 00:01:53;;;;;;;6.30;4.73;;;19.60;99.90;;;;;;5060568;28;20463;-61
2023/09/05 00:04:20;;;;;;;6.37;4.67;;;19.60;99.90;;;;;;5060773;28;20872;-60
2023/09/05 00:06:50;;;;;;;7.77;5.80;;;19.60;99.90;;;;;;5060030;28;20454;-58
2023/09/05 00:09:19;;;;;;;13.63;11.77;;;19.60;99.90;;;;;;5062470;28;20495;-61
2023/09/05 00:11:46;;;;;;;19.37;9.17;;;19.60;99.90;;;;;;5059596;28;20450;-61
2023/09/05 00:14:15;;;;;;;14.50;9.93;;;19.60;99.90;;;;;;5059268;28;20463;-60
2023/09/05 00:16:42;;;;;;;13.67;9.83;;;19.60;99.90;;;;;;5058704;28;20446;-60
2023/09/05 00:19:10;;;;;;;10.20;7.80;;;19.60;99.90;;;;;;5058946;28;20451;-58
2023/09/05 00:21:36;;;;;;;10.47;8.53;;;19.60;99.90;;;;;;5058959;28;20471;-57
2023/09/05 00:24:31;;;;;;;7.57;6.50;;;19.60;99.90;;;;;;5058404;28;20521;-62
2023/09/05 00:27:02;;;;;;;7.30;4.93;;;19.60;99.90;;;;;;5059438;28;20432;-58
2023/09/05 00:29:31;;;;;;;9.00;5.00;;;19.60;99.90;;;;;;5059524;28;20436;-62
2023/09/05 00:31:59;;;;;;;6.10;5.17;;;19.60;99.90;;;;;;5059056;28;20839;-60
2023/09/05 00:34:27;;;;;;;10.07;4.97;;;19.50;99.90;;;;;;5058566;28;20454;-61
2023/09/05 00:36:54;;;;;;;7.07;4.30;;;19.50;99.90;;;;;;5059003;28;20493;-59
2023/09/05 00:39:21;;;;;;;5.63;4.33;;;19.40;99.90;;;;;;5058496;28;20530;-60
2023/09/05 00:41:48;;;;;;;7.13;5.27;;;19.40;99.90;;;;;;5058524;28;20486;-59
2023/09/05 00:44:15;;;;;;;5.30;4.77;;;19.40;99.90;;;;;;5059106;28;20539;-60
2023/09/05 00:46:45;;;;;;;6.67;5.00;;;19.40;99.90;;;;;;5058352;28;20471;-59
2023/09/05 00:49:12;;;;;;;5.47;4.93;;;19.30;99.90;;;;;;5058300;28;20559;-61
2023/09/05 00:51:42;;;;;;;6.07;4.83;;;19.40;99.90;;;;;;5057849;28;20511;-59
2023/09/05 00:54:11;;;;;;;5.30;4.20;;;19.30;99.90;;;;;;5058822;28;20471;-60
2023/09/05 00:56:41;;;;;;;5.23;4.37;;;19.30;99.90;;;;;;5057988;28;20443;-60
2023/09/05 00:59:09;;;;;;;6.07;4.97;;;19.30;99.90;;;;;;5058667;28;20550;-59
2023/09/05 01:01:36;;;;;;;5.60;5.00;;;19.30;99.90;;;;;;5058344;28;20479;-57
2023/09/05 01:04:05;;;;;;;5.93;4.90;;;19.20;99.90;;;;;;5058955;28;20883;-58
2023/09/05 01:06:38;;;;;;;6.47;5.17;;;19.20;99.90;;;;;;5058381;28;20432;-60
2023/09/05 01:09:19;;;;;;;5.17;4.67;;;19.20;99.90;;;;;;5058809;28;20502;-59
2023/09/05 01:11:46;;;;;;;5.30;4.60;;;19.10;99.90;;;;;;5058479;28;20430;-59
2023/09/05 01:14:13;;;;;;;4.80;4.07;;;19.10;99.90;;;;;;5058391;28;20534;-59
2023/09/05 01:16:45;;;;;;;5.13;4.23;;;19.10;99.90;;;;;;5058091;28;20475;-60
2023/09/05 01:19:16;;;;;;;7.20;4.37;;;19.10;99.90;;;;;;5058555;28;20424;-60
2023/09/05 01:21:54;;;;;;;6.23;4.00;;;19.10;99.90;;;;;;5057941;28;20468;-60
2023/09/05 01:24:23;;;;;;;4.50;3.90;;;19.10;99.90;;;;;;5059071;28;20520;-59
2023/09/05 01:26:52;;;;;;;7.10;4.20;;;19.00;99.90;;;;;;5058260;28;20475;-59
2023/09/05 01:29:29;;;;;;;6.07;4.60;;;19.00;99.90;;;;;;5058250;28;20504;-60
2023/09/05 01:31:59;;;;;;;7.17;5.23;;;19.00;99.90;;;;;;5058612;28;20427;-60
2023/09/05 01:34:26;;;;;;;7.40;5.53;;;19.00;99.90;;;;;;5058732;28;20462;-61
2023/09/05 01:36:52;;;;;;;5.73;4.20;;;19.00;99.90;;;;;;5062063;28;20475;-60
2023/09/05 01:39:20;;;;;;;4.73;4.30;;;19.00;99.90;;;;;;5062418;28;20495;-60
2023/09/05 01:41:48;;;;;;;5.60;4.57;;;19.00;99.90;;;;;;5062013;28;20483;-61
2023/09/05 01:44:17;;;;;;;5.80;5.20;;;19.00;99.90;;;;;;5062453;28;20490;-60
2023/09/05 01:46:44;;;;;;;6.80;4.30;;;19.00;99.90;;;;;;5062608;28;20475;-61
2023/09/05 01:49:11;;;;;;;5.33;4.53;;;19.00;99.90;;;;;;5062038;28;20471;-61
2023/09/05 01:51:38;;;;;;;5.53;4.50;;;19.00;99.90;;;;;;5062316;28;20433;-62
2023/09/05 01:54:07;;;;;;;9.60;4.40;;;18.90;99.90;;;;;;5061567;28;20474;-61
2023/09/05 01:56:34;;;;;;;5.53;3.90;;;18.90;99.90;;;;;;5061913;28;20450;-61
2023/09/05 01:59:02;;;;;;;6.03;5.17;;;18.90;99.90;;;;;;5061718;28;20467;-59
2023/09/05 02:01:29;;;;;;;10.33;4.20;;;18.90;99.90;;;;;;5061625;28;20553;-61
2023/09/05 02:03:56;;;;;;;5.87;4.53;;;18.90;99.90;;;;;;5061975;28;20569;-61
2023/09/05 02:06:27;;;;;;;5.97;4.10;;;18.90;99.90;;;;;;5061309;28;20489;-61
2023/09/05 02:08:54;;;;;;;4.60;3.90;;;18.80;99.90;;;;;;5062338;28;20441;-58
2023/09/05 02:11:21;;;;;;;6.17;4.80;;;18.80;99.90;;;;;;5061893;28;20903;-59
2023/09/05 02:13:48;;;;;;;4.40;3.87;;;18.80;99.90;;;;;;5061541;28;20406;-60
2023/09/05 02:16:18;;;;;;;4.20;3.80;;;18.80;99.90;;;;;;5059402;28;20489;-60
2023/09/05 02:18:46;;;;;;;6.30;4.60;;;18.70;99.90;;;;;;5059742;28;20443;-61
2023/09/05 02:21:12;;;;;;;6.13;4.77;;;18.70;99.90;;;;;;5059582;28;20446;-60
2023/09/05 02:23:39;;;;;;;8.20;4.13;;;18.70;99.90;;;;;;5059755;28;20506;-57
2023/09/05 02:26:06;;;;;;;4.80;3.57;;;18.70;99.90;;;;;;5060137;28;20484;-60
2023/09/05 02:28:33;;;;;;;5.13;4.37;;;18.70;99.90;;;;;;5059386;28;20473;-60
2023/09/05 02:31:07;;;;;;;4.60;3.97;;;18.70;99.90;;;;;;5059781;28;20450;-60
2023/09/05 02:33:36;;;;;;;4.63;4.20;;;18.70;99.90;;;;;;5059439;28;20474;-60
2023/09/05 02:36:15;;;;;;;4.27;3.87;;;18.70;99.90;;;;;;5059050;28;20489;-60
2023/09/05 02:38:42;;;;;;;5.70;4.50;;;18.60;99.90;;;;;;5059365;28;20465;-60
2023/09/05 02:41:12;;;;;;;5.17;4.67;;;18.60;99.90;;;;;;5059394;28;20912;-60
2023/09/05 02:43:39;;;;;;;5.47;3.80;;;18.60;99.90;;;;;;5059034;28;20534;-60
2023/09/05 02:46:06;;;;;;;4.90;4.27;;;18.60;99.90;;;;;;5058920;28;20951;-59
2023/09/05 02:48:36;;;;;;;7.03;4.87;;;18.60;99.90;;;;;;5058729;28;20451;-60
2023/09/05 02:51:04;;;;;;;6.23;4.70;;;18.60;99.90;;;;;;5059171;28;20554;-60
2023/09/05 02:53:31;;;;;;;4.63;4.20;;;18.60;99.90;;;;;;5058737;28;20823;-60
2023/09/05 02:55:58;;;;;;;4.10;3.70;;;18.60;99.90;;;;;;5058796;28;20447;-60
2023/09/05 02:58:28;;;;;;;5.53;3.60;;;18.60;99.90;;;;;;5059186;28;20880;-59
2023/09/05 03:01:01;;;;;;;4.37;3.63;;;18.60;99.90;;;;;;5060448;28;20613;-60
2023/09/05 03:03:28;;;;;;;4.27;3.87;;;18.60;99.90;;;;;;5061734;28;20462;-60
2023/09/05 03:05:58;;;;;;;5.17;3.90;;;18.60;99.90;;;;;;5061402;28;20558;-62
2023/09/05 03:08:25;;;;;;;5.60;3.80;;;17.70;99.90;;;;;;5060765;28;20471;-61
2023/09/05 03:10:53;;;;;;;4.93;4.10;;;18.60;99.90;;;;;;5060529;28;20453;-60
2023/09/05 03:13:20;;;;;;;5.83;4.10;;;18.60;99.90;;;;;;5060651;28;21040;-60
2023/09/05 03:15:53;;;;;;;4.67;4.10;;;18.50;99.90;;;;;;5060713;28;20499;-60
2023/09/05 03:18:20;;;;;;;4.60;4.10;;;19.30;99.90;;;;;;5060549;28;20427;-61
2023/09/05 03:20:47;;;;;;;4.87;3.80;;;18.50;99.90;;;;;;5060777;28;20455;-60
2023/09/05 03:23:15;;;;;;;6.50;4.43;;;18.50;99.90;;;;;;5060731;28;20507;-61
2023/09/05 03:25:42;;;;;;;6.77;4.77;;;18.50;99.90;;;;;;5060219;28;20515;-59
2023/09/05 03:28:11;;;;;;;8.20;5.30;;;18.50;99.90;;;;;;5060114;28;20475;-60
2023/09/05 03:30:38;;;;;;;7.30;5.80;;;18.50;99.90;;;;;;5060265;28;20467;-61
2023/09/05 03:33:05;;;;;;;10.23;5.83;;;18.40;99.90;;;;;;5060938;28;20526;-61
2023/09/05 03:35:36;;;;;;;9.03;6.53;;;18.40;99.90;;;;;;5061678;28;20463;-60
2023/09/05 03:38:05;;;;;;;11.17;6.47;;;18.40;99.90;;;;;;5060426;28;20964;-60
2023/09/05 03:40:33;;;;;;;10.90;6.30;;;18.40;99.90;;;;;;5060445;28;20458;-61
2023/09/05 03:43:00;;;;;;;15.30;7.40;;;18.30;99.90;;;;;;5059857;28;20513;-60
2023/09/05 03:45:27;;;;;;;9.80;6.70;;;18.30;99.90;;;;;;5060467;28;20561;-59
2023/09/05 03:47:54;;;;;;;11.90;6.73;;;18.30;99.90;;;;;;5060289;28;20467;-61
2023/09/05 03:50:21;;;;;;;10.70;7.17;;;18.20;99.90;;;;;;5059936;28;20465;-60
2023/09/05 03:52:48;;;;;;;15.80;7.50;;;18.20;99.90;;;;;;5060114;28;20850;-58
2023/09/05 03:55:16;;;;;;;22.63;8.07;;;18.20;99.90;;;;;;5059541;28;20515;-60
2023/09/05 03:57:47;;;;;;;17.27;8.17;;;18.20;99.90;;;;;;5059959;28;20443;-59
2023/09/05 04:00:14;;;;;;;13.50;7.83;;;18.10;99.90;;;;;;5059920;28;20424;-59
2023/09/05 04:02:41;;;;;;;11.00;6.40;;;18.10;99.90;;;;;;5059996;28;20491;-60
2023/09/05 04:05:10;;;;;;;12.80;7.50;;;18.00;99.90;;;;;;5059765;28;20521;-61
2023/09/05 04:07:37;;;;;;;9.87;6.13;;;18.00;99.90;;;;;;5059744;28;20487;-60
2023/09/05 04:10:05;;;;;;;10.53;6.50;;;18.00;99.90;;;;;;5059319;28;20502;-58
2023/09/05 04:12:32;;;;;;;7.10;5.60;;;18.00;99.90;;;;;;5059398;28;20478;-60
2023/09/05 04:15:00;;;;;;;9.43;5.40;;;18.00;99.90;;;;;;5059716;28;20495;-59
2023/09/05 04:17:27;;;;;;;7.20;4.93;;;18.00;99.90;;;;;;5059755;28;20479;-60
2023/09/05 04:19:54;;;;;;;8.90;5.23;;;18.00;99.90;;;;;;5059811;28;20467;-61
2023/09/05 04:22:21;;;;;;;6.23;5.60;;;18.00;99.90;;;;;;5059642;28;20530;-61
2023/09/05 04:24:53;;;;;;;8.50;5.50;;;18.00;99.90;;;;;;5059627;28;20509;-61
2023/09/05 04:27:21;;;;;;;6.97;4.80;;;18.00;99.90;;;;;;5058833;28;20561;-60
2023/09/05 04:29:53;;;;;;;6.33;5.13;;;18.00;99.90;;;;;;5059340;28;20451;-61
2023/09/05 04:32:28;;;;;;;7.23;4.90;;;18.00;99.90;;;;;;5059338;28;20467;-56
2023/09/05 04:34:55;;;;;;;5.33;4.90;;;18.00;99.90;;;;;;5058991;28;20451;-61
2023/09/05 04:37:22;;;;;;;7.60;5.20;;;18.00;99.90;;;;;;5059071;28;20525;-62
2023/09/05 04:39:49;;;;;;;7.70;4.87;;;18.00;99.90;;;;;;5059590;28;20439;-61
2023/09/05 04:42:16;;;;;;;5.53;5.00;;;18.00;99.90;;;;;;5058969;28;20494;-60
2023/09/05 04:44:43;;;;;;;8.10;5.27;;;17.90;99.90;;;;;;5058905;28;20515;-61
2023/09/05 04:47:22;;;;;;;5.10;4.60;;;18.00;99.90;;;;;;5058688;28;20505;-60
2023/09/05 04:49:49;;;;;;;15.80;5.30;;;17.90;99.90;;;;;;5058994;28;20563;-59
2023/09/05 04:52:16;;;;;;;6.37;4.57;;;17.90;99.90;;;;;;5059718;28;20562;-59
2023/09/05 04:54:43;;;;;;;5.47;4.97;;;17.90;99.90;;;;;;5060006;28;20455;-60
2023/09/05 04:57:10;;;;;;;6.87;5.77;;;17.90;99.90;;;;;;5058887;28;20518;-59
2023/09/05 04:59:38;;;;;;;7.63;5.70;;;17.90;99.90;;;;;;5059623;28;20462;-58
2023/09/05 05:02:05;;;;;;;8.10;6.17;;;17.90;99.90;;;;;;5059374;28;20435;-60
2023/09/05 05:04:33;;;;;;;7.07;5.60;;;17.90;99.90;;;;;;5059260;28;20485;-60
2023/09/05 05:07:00;;;;;;;9.83;6.80;;;17.90;99.90;;;;;;5059140;28;20446;-58
2023/09/05 05:09:27;;;;;;;9.23;5.40;;;17.90;99.90;;;;;;5058823;28;20934;-60
2023/09/05 05:11:54;;;;;;;14.90;6.17;;;17.90;99.90;;;;;;5058977;28;20550;-61
2023/09/05 05:14:20;;;;;;;9.97;5.43;;;17.90;99.90;;;;;;5058348;28;20987;-60
2023/09/05 05:16:49;;;;;;;12.07;6.03;;;18.00;99.90;;;;;;5058628;28;20545;-59
2023/09/05 05:19:15;;;;;;;9.17;6.50;;;18.00;99.90;;;;;;5058796;28;20451;-61
2023/09/05 05:21:44;;;;;;;9.10;5.67;;;18.00;99.90;;;;;;5058522;28;20474;-61
2023/09/05 05:24:10;;;;;;;8.13;5.90;;;18.00;99.90;;;;;;5058887;28;20432;-61
2023/09/05 05:26:37;;;;;;;7.03;5.40;;;18.00;99.90;;;;;;5059212;28;20533;-59
2023/09/05 05:29:04;;;;;;;7.57;5.10;;;18.00;99.90;;;;;;5060420;28;20932;-59
2023/09/05 05:31:32;;;;;;;7.17;4.83;;;18.00;99.90;;;;;;5058800;28;20961;-58
2023/09/05 05:33:59;;;;;;;7.57;5.23;;;18.10;99.90;;;;;;5059174;28;20558;-60
2023/09/05 05:36:30;;;;;;;5.30;4.37;;;18.10;99.90;;;;;;5058919;28;20435;-60
2023/09/05 05:38:59;;;;;;;5.53;4.13;;;18.20;99.90;;;;;;5059526;28;20937;-61
2023/09/05 05:41:27;;;;;;;5.13;4.47;;;18.20;99.90;;;;;;5058795;28;20494;-61
2023/09/05 05:43:54;;;;;;;6.20;3.77;;;18.20;99.90;;;;;;5056957;28;20438;-60
2023/09/05 05:46:21;;;;;;;5.17;4.13;;;18.30;99.90;;;;;;5056044;28;20575;-62
2023/09/05 05:48:48;;;;;;;6.10;3.83;;;18.30;99.90;;;;;;5056628;28;20444;-61
2023/09/05 05:51:15;;;;;;;4.67;4.17;;;18.30;99.90;;;;;;5056152;28;20514;-60
2023/09/05 05:53:45;;;;;;;7.37;4.77;;;18.30;99.90;;;;;;5056455;28;20526;-59
2023/09/05 05:56:13;;;;;;;5.50;4.57;;;18.30;99.90;;;;;;5058367;28;20467;-60
2023/09/05 05:58:40;;;;;;;5.30;4.10;;;18.40;99.90;;;;;;5060316;28;20532;-60
2023/09/05 06:01:07;;;;;;;5.50;4.23;;;18.40;99.90;;;;;;5064249;28;20451;-60
2023/09/05 06:03:35;;;;;;;5.10;4.60;;;18.50;99.90;;;;;;5064426;28;20428;-61
2023/09/05 06:06:03;;;;;;;7.87;4.10;;;18.50;99.90;;;;;;5064251;28;20608;-57
2023/09/05 06:08:30;;;;;;;12.20;5.00;;;18.50;99.90;;;;;;5063434;28;20467;-62
2023/09/05 06:10:57;;;;;;;4.80;4.13;;;18.60;99.90;;;;;;5064959;28;20447;-58
2023/09/05 06:13:26;;;;;;;5.73;4.47;;;18.60;99.90;;;;;;5064768;28;20470;-60
2023/09/05 06:15:53;;;;;;;6.47;4.23;;;18.70;99.90;;;;;;5064754;28;20454;-61
2023/09/05 06:18:22;;;;;;;5.93;4.20;;;18.70;99.90;;;;;;5064558;28;20955;-59
2023/09/05 06:20:49;;;;;;;6.27;4.10;;;18.80;99.90;;;;;;5064471;28;20482;-60
2023/09/05 06:23:16;;;;;;;4.63;3.77;;;18.90;99.90;;;;;;5067093;28;20551;-59
2023/09/05 06:25:43;;;;;;;4.80;3.80;;;18.90;99.90;;;;;;5067118;28;20510;-60
2023/09/05 06:28:10;;;;;;;5.97;3.70;;;19.00;99.90;;;;;;5066984;28;20475;-58
2023/09/05 06:30:38;;;;;;;3.83;3.47;;;19.00;99.90;;;;;;5065056;28;20503;-61
2023/09/05 06:33:05;;;;;;;7.63;5.23;;;19.10;99.90;;;;;;5057607;28;20467;-59
2023/09/05 06:35:32;;;;;;;4.07;3.60;;;19.20;99.90;;;;;;5059128;28;20506;-60
2023/09/05 06:37:59;;;;;;;3.70;3.40;;;19.30;99.90;;;;;;5061288;28;20522;-61
2023/09/05 06:40:26;;;;;;;6.27;5.13;;;19.40;99.90;;;;;;5061426;28;20459;-60
2023/09/05 06:42:53;;;;;;;6.67;4.00;;;19.50;99.90;;;;;;5061352;28;20483;-60
2023/09/05 06:45:21;;;;;;;4.07;3.23;;;19.60;99.90;;;;;;5061151;28;20915;-62
2023/09/05 06:47:51;;;;;;;5.10;3.40;;;19.70;99.90;;;;;;5061166;28;20467;-61
2023/09/05 06:50:18;;;;;;;5.00;3.43;;;19.80;99.90;;;;;;5061064;28;20439;-58
2023/09/05 06:52:47;;;;;;;6.13;3.27;;;19.90;99.90;;;;;;5060124;28;20554;-61
2023/09/05 06:55:13;;;;;;;4.83;3.30;;;20.00;99.90;;;;;;5059956;28;20617;-62
2023/09/05 06:57:40;;;;;;;4.27;3.53;;;20.10;99.90;;;;;;5059302;28;20482;-61
2023/09/05 07:00:08;;;;;;;7.47;4.13;;;20.10;99.90;;;;;;5059503;28;20467;-60
2023/09/05 07:02:35;;;;;;;3.37;2.80;;;20.20;99.90;;;;;;5059343;28;20454;-61
2023/09/05 07:05:04;;;;;;;5.87;3.93;;;20.20;99.90;;;;;;5058729;28;20467;-61
2023/09/05 07:07:30;;;;;;;6.03;3.40;;;20.20;99.90;;;;;;5058748;28;20478;-61
2023/09/05 07:09:58;;;;;;;2.90;2.60;;;20.30;99.90;;;;;;5058512;28;20525;-60
2023/09/05 07:12:24;;;;;;;2.90;2.70;;;20.40;99.90;;;;;;5058662;28;20835;-60
2023/09/05 07:14:52;;;;;;;4.43;3.40;;;20.50;99.90;;;;;;5058172;28;20502;-61
2023/09/05 07:17:19;;;;;;;9.97;4.50;;;20.60;99.90;;;;;;5058346;28;20470;-60
2023/09/05 07:19:46;;;;;;;4.73;3.30;;;20.60;99.90;;;;;;5058076;28;20475;-60
2023/09/05 07:22:14;;;;;;;4.83;2.90;;;20.70;99.90;;;;;;5057960;28;20896;-60
2023/09/05 07:24:41;;;;;;;3.53;3.23;;;20.80;99.90;;;;;;5057944;28;20502;-60
2023/09/05 07:27:10;;;;;;;3.33;2.77;;;20.90;99.90;;;;;;5057966;28;20876;-57
2023/09/05 07:29:37;;;;;;;4.13;3.20;;;21.00;99.90;;;;;;5058344;28;20528;-60
2023/09/05 07:32:04;;;;;;;9.33;3.40;;;21.10;99.90;;;;;;5057727;28;20513;-61
2023/09/05 07:34:30;;;;;;;6.17;3.20;;;21.20;99.90;;;;;;5057466;28;20474;-61
2023/09/05 07:36:57;;;;;;;4.63;3.50;;;21.20;99.90;;;;;;5057533;28;21007;-61
2023/09/05 07:39:26;;;;;;;4.60;3.10;;;21.20;99.90;;;;;;5059216;28;20435;-59
2023/09/05 07:41:52;;;;;;;4.50;3.20;;;21.30;99.90;;;;;;5059708;28;20479;-61
2023/09/05 07:44:20;;;;;;;6.37;3.27;;;21.40;99.90;;;;;;5059469;28;20479;-59
2023/09/05 07:46:48;;;;;;;3.30;3.00;;;21.40;99.90;;;;;;5059205;28;20485;-60
2023/09/05 07:49:16;;;;;;;4.23;3.23;;;21.50;99.90;;;;;;5059437;28;20962;-57
2023/09/05 07:51:43;;;;;;;7.27;2.33;;;21.70;99.90;;;;;;5059129;28;20831;-59
2023/09/05 07:54:14;;;;;;;3.60;2.80;;;21.80;99.90;;;;;;5059377;28;20950;-62
2023/09/05 07:56:42;;;;;;;3.53;3.17;;;21.90;99.90;;;;;;5059545;28;20432;-60
2023/09/05 07:59:09;;;;;;;3.67;2.73;;;22.10;99.90;;;;;;5059460;28;20610;-57
2023/09/05 08:01:37;;;;;;;4.13;2.83;;;22.20;99.90;;;;;;5059059;28;20440;-60
2023/09/05 08:04:04;;;;;;;4.03;3.03;;;20.50;99.90;;;;;;5059472;28;20769;-62
2023/09/05 08:06:31;;;;;;;4.90;3.17;;;22.50;99.90;;;;;;5059267;28;20574;-61
2023/09/05 08:08:58;;;;;;;3.80;2.70;;;22.80;99.90;;;;;;5058694;28;20505;-60
2023/09/05 08:11:25;;;;;;;3.63;2.47;;;23.40;99.90;;;;;;5059289;28;20463;-61
2023/09/05 08:13:53;;;;;;;5.87;2.97;;;24.20;99.90;;;;;;5058655;28;20864;-59
2023/09/05 08:16:20;;;;;;;4.33;2.87;;;25.50;99.90;;;;;;5058138;28;20537;-61
2023/09/05 08:18:47;;;;;;;11.30;8.20;;;26.90;99.90;;;;;;5057793;28;20489;-60
2023/09/05 08:21:16;;;;;;;10.40;6.77;;;28.60;99.90;;;;;;5056929;28;20554;-61
2023/09/05 08:23:44;;;;;;;4.57;3.87;;;30.10;98.30;;;;;;5057209;28;20471;-63
2023/09/05 08:26:11;;;;;;;3.10;2.70;;;31.40;91.90;;;;;;5057179;28;20505;-58
2023/09/05 08:28:43;;;;;;;2.90;2.70;;;32.60;80.40;;;;;;5057135;28;20467;-61
2023/09/05 08:31:13;;;;;;;3.00;2.57;;;33.30;74.00;;;;;;5057560;28;20425;-61
2023/09/05 08:33:40;;;;;;;3.30;2.73;;;33.90;69.20;;;;;;5057087;28;20877;-61
2023/09/05 08:36:09;;;;;;;2.30;2.10;;;34.40;65.80;;;;;;5057190;28;20507;-61
2023/09/05 08:38:37;;;;;;;2.83;2.50;;;35.00;63.20;;;;;;5057143;28;20447;-59
2023/09/05 08:41:06;;;;;;;2.70;2.50;;;35.70;59.70;;;;;;5057082;28;20455;-61
2023/09/05 08:43:33;;;;;;;4.23;2.37;;;36.20;57.70;;;;;;5056743;28;20457;-60
2023/09/05 08:46:02;;;;;;;2.70;2.50;;;36.40;56.00;;;;;;5055821;28;20514;-58
2023/09/05 08:48:31;;;;;;;3.93;2.30;;;36.70;54.30;;;;;;5057239;28;20505;-61
2023/09/05 08:51:00;;;;;;;2.37;2.17;;;37.10;53.60;;;;;;5056810;28;20463;-62
2023/09/05 08:53:32;;;;;;;2.40;2.20;;;37.20;52.40;;;;;;5056706;28;20895;-60
2023/09/05 08:55:59;;;;;;;3.93;2.93;;;37.40;51.80;;;;;;5056991;28;20466;-58
2023/09/05 08:58:27;;;;;;;4.40;2.70;;;37.20;51.00;;;;;;5057276;28;20443;-61
2023/09/05 09:00:54;;;;;;;2.60;2.37;;;36.70;51.50;;;;;;5056528;28;20479;-60
2023/09/05 09:03:21;;;;;;;2.50;2.30;;;36.70;51.30;;;;;;5056549;28;20447;-61
2023/09/05 09:05:49;;;;;;;4.00;2.27;;;36.70;50.80;;;;;;5056935;28;20498;-61
2023/09/05 09:08:19;;;;;;;5.63;3.10;;;36.80;50.60;;;;;;5058700;28;20478;-60
2023/09/05 09:11:05;;;;;;;3.87;3.47;;;36.80;51.20;;;;;;5058473;28;20459;-61
2023/09/05 09:13:31;;;;;;;2.43;2.23;;;36.70;50.00;;;;;;5058749;28;20501;-59
2023/09/05 09:15:59;;;;;;;3.17;2.30;;;36.80;49.20;;;;;;5059688;28;20450;-61
2023/09/05 09:18:27;;;;;;;2.17;1.97;;;36.60;48.90;;;;;;5061503;28;20478;-61
2023/09/05 09:20:55;;;;;;;2.90;2.10;;;36.30;48.80;;;;;;5058579;28;20530;-60
2023/09/05 09:23:26;;;;;;;3.30;2.27;;;36.20;49.20;;;;;;5057737;28;20469;-61
2023/09/05 09:25:57;;;;;;;3.37;2.57;;;35.90;49.40;;;;;;5058109;28;20538;-60
2023/09/05 09:28:26;;;;;;;4.57;3.40;;;36.00;48.80;;;;;;5058270;28;20954;-61
2023/09/05 09:30:57;;;;;;;3.70;2.20;;;36.00;49.40;;;;;;5057792;28;20439;-61
2023/09/05 09:33:25;;;;;;;3.30;2.60;;;35.90;49.30;;;;;;5057702;28;20502;-60
2023/09/05 09:36:07;;;;;;;3.83;2.30;;;36.10;49.70;;;;;;5054344;28;20455;-58
2023/09/05 09:38:34;;;;;;;4.53;3.37;;;36.30;49.50;;;;;;5054725;28;20835;-61
2023/09/05 09:41:03;;;;;;;4.50;3.60;;;36.40;49.70;;;;;;5103941;22;20900;-60
2023/09/05 09:43:31;;;;;;;3.67;2.87;;;36.60;49.80;;;;;;5037069;28;20534;-63
2023/09/05 09:45:59;;;;;;;3.00;2.70;;;36.70;49.60;;;;;;5041528;28;20530;-61
2023/09/05 09:48:27;;;;;;;3.23;2.73;;;36.60;49.60;;;;;;5043194;28;20553;-61
2023/09/05 09:50:56;;;;;;;3.20;2.67;;;36.50;49.50;;;;;;5046093;28;20774;-59
2023/09/05 09:53:34;;;;;;;4.07;2.33;;;36.60;49.20;;;;;;5047990;28;20458;-62
2023/09/05 09:56:08;;;;;;;2.47;2.27;;;37.00;48.90;;;;;;5047649;28;20459;-62
2023/09/05 09:58:36;;;;;;;2.67;1.90;;;37.10;48.50;;;;;;5050594;28;20452;-62
2023/09/05 10:01:06;;;;;;;2.50;2.30;;;36.90;48.90;;;;;;5048312;28;21033;-60
2023/09/05 10:03:34;;;;;;;7.23;3.73;;;36.80;48.50;;;;;;5048163;28;20459;-61
2023/09/05 10:06:04;;;;;;;3.13;2.77;;;36.90;49.20;;;;;;5050212;28;20489;-62
2023/09/05 10:08:33;;;;;;;2.20;1.97;;;36.80;48.60;;;;;;5048520;28;20463;-61
2023/09/05 10:11:00;;;;;;;2.90;2.10;;;36.40;48.50;;;;;;5048258;28;21008;-60
2023/09/05 10:13:32;;;;;;;5.43;2.03;;;36.00;49.40;;;;;;5043219;28;20831;-62
2023/09/05 10:16:01;;;;;;;2.53;2.33;;;35.90;49.50;;;;;;5052642;28;20452;-62
2023/09/05 10:18:28;;;;;;;2.87;2.53;;;35.70;50.10;;;;;;5049683;28;20459;-61
2023/09/05 10:20:58;;;;;;;3.03;1.93;;;35.80;50.30;;;;;;5047906;28;20471;-62
2023/09/05 10:23:25;;;;;;;2.83;2.23;;;35.90;49.80;;;;;;5049326;28;20551;-60
2023/09/05 10:25:55;;;;;;;4.73;2.37;;;35.90;49.60;;;;;;5048573;28;20429;-62
2023/09/05 10:28:25;;;;;;;2.27;2.07;;;36.00;49.50;;;;;;5047206;28;20965;-61
2023/09/05 10:30:55;;;;;;;6.40;2.20;;;35.80;49.30;;;;;;5053379;28;20478;-61
2023/09/05 10:33:32;;;;;;;2.80;2.50;;;35.50;50.00;;;;;;5055341;28;20785;-62
2023/09/05 10:36:00;;;;;;;3.70;2.13;;;35.40;50.20;;;;;;5052196;28;20435;-61
2023/09/05 10:38:30;;;;;;;2.47;1.90;;;35.10;50.30;;;;;;5051700;28;20524;-60
2023/09/05 10:40:59;;;;;;;4.97;3.37;;;34.50;50.90;;;;;;5051508;28;20443;-61
2023/09/05 10:43:27;;;;;;;5.10;2.83;;;34.10;52.00;;;;;;5050832;28;20466;-62
2023/09/05 10:45:59;;;;;;;2.33;2.07;;;34.00;52.80;;;;;;5049853;28;20444;-64
2023/09/05 10:48:34;;;;;;;2.67;2.20;;;34.00;52.50;;;;;;5048319;28;20487;-61
2023/09/05 10:51:10;;;;;;;4.23;2.30;;;33.80;52.90;;;;;;5050279;28;20515;-60
2023/09/05 10:53:38;;;;;;;2.87;2.10;;;33.70;53.40;;;;;;5050313;28;20803;-61
2023/09/05 10:56:27;;;;;;;3.30;2.10;;;33.40;53.60;;;;;;5046397;28;20492;-61
2023/09/05 10:58:54;;;;;;;2.53;2.30;;;33.10;53.80;;;;;;5049915;28;20515;-62
2023/09/05 11:01:48;;;;;;;3.13;2.00;;;32.60;54.90;;;;;;5039573;28;20502;-63
2023/09/05 11:04:26;;;;;;;3.57;2.10;;;32.20;55.30;;;;;;5039404;28;20991;-62
2023/09/05 11:07:01;;;;;;;2.90;2.17;;;32.10;56.00;;;;;;5039772;28;20472;-61
2023/09/05 11:09:31;;;;;;;2.70;2.17;;;32.00;56.50;;;;;;5055757;28;20834;-63
2023/09/05 11:12:06;;;;;;;5.00;2.37;;;31.70;57.40;;;;;;5059425;28;20815;-62
2023/09/05 11:14:34;;;;;;;2.10;1.90;;;31.60;57.60;;;;;;5049932;28;20444;-62
2023/09/05 11:17:02;;;;;;;4.10;2.13;;;31.40;57.20;;;;;;5048943;28;20508;-62
2023/09/05 11:19:38;;;;;;;2.20;1.93;;;31.00;57.50;;;;;;5044605;28;20478;-61
2023/09/05 11:22:17;;;;;;;2.20;2.00;;;30.70;58.10;;;;;;5042066;28;20987;-63
2023/09/05 11:24:47;;;;;;;4.03;2.23;;;30.50;58.50;;;;;;5050160;28;20464;-61
2023/09/05 11:27:17;;;;;;;3.20;2.20;;;30.50;58.90;;;;;;5047260;28;20475;-64
2023/09/05 11:29:45;;;;;;;4.50;2.43;;;30.50;60.50;;;;;;5047743;28;20485;-62
2023/09/05 11:32:14;;;;;;;2.43;2.00;;;30.10;59.50;;;;;;5052374;28;20455;-59
2023/09/05 11:34:45;;;;;;;2.60;2.27;;;30.30;60.40;;;;;;5051266;28;20443;-63
2023/09/05 11:37:16;;;;;;;5.67;3.43;;;30.10;60.80;;;;;;5051455;28;20557;-63
2023/09/05 11:39:44;;;;;;;2.37;1.80;;;30.00;63.10;;;;;;5044607;28;20463;-61
2023/09/05 11:42:23;;;;;;;2.10;1.80;;;29.80;60.80;;;;;;5050554;28;21328;-62
2023/09/05 11:44:52;;;;;;;2.13;1.93;;;29.50;61.50;;;;;;5070835;28;20925;-61
2023/09/05 11:47:21;;;;;;;3.67;1.83;;;29.40;62.40;;;;;;5065218;28;20486;-61
2023/09/05 11:49:49;;;;;;;3.60;2.23;;;29.30;63.00;;;;;;5061617;28;20454;-61
2023/09/05 11:52:18;;;;;;;2.03;1.87;;;29.30;62.90;;;;;;5056883;28;20459;-63
2023/09/05 11:54:47;;;;;;;3.30;3.00;;;29.30;65.20;;;;;;5057382;28;20930;-64
2023/09/05 11:57:15;;;;;;;2.27;1.80;;;29.30;64.60;;;;;;5058082;28;20499;-63
2023/09/05 11:59:43;;;;;;;2.70;2.50;;;29.20;63.50;;;;;;5057695;28;20436;-63
2023/09/05 12:02:15;;;;;;;3.03;2.77;;;29.20;65.00;;;;;;5049391;28;20439;-60
2023/09/05 12:04:42;;;;;;;2.60;2.17;;;29.20;63.50;;;;;;5058414;28;20463;-61
2023/09/05 12:07:11;;;;;;;2.23;1.93;;;29.20;63.60;;;;;;5056576;28;20899;-62
2023/09/05 12:09:39;;;;;;;2.57;2.20;;;29.00;64.90;;;;;;5057555;28;20483;-61
2023/09/05 12:12:13;;;;;;;3.00;2.10;;;29.10;64.30;;;;;;5051862;28;20546;-60
2023/09/05 12:14:53;;;;;;;2.17;1.87;;;29.20;64.90;;;;;;5060105;28;20474;-62
2023/09/05 12:17:23;;;;;;;2.77;2.10;;;29.10;64.10;;;;;;5065049;28;20439;-62
2023/09/05 12:19:51;;;;;;;3.17;2.37;;;28.90;63.80;;;;;;5056756;28;20967;-63
2023/09/05 12:22:27;;;;;;;2.33;2.00;;;28.80;64.40;;;;;;5052120;28;20443;-61
2023/09/05 12:25:08;;;;;;;5.20;2.40;;;28.70;64.80;;;;;;5053193;28;20463;-63
2023/09/05 12:27:35;;;;;;;3.40;2.67;;;28.70;65.60;;;;;;5065793;28;20566;-60
2023/09/05 12:30:03;;;;;;;3.73;2.23;;;28.70;66.40;;;;;;5063482;28;20474;-62
2023/09/05 12:32:30;;;;;;;2.43;1.90;;;28.80;66.50;;;;;;5052536;28;20548;-62
2023/09/05 12:34:57;;;;;;;2.67;2.40;;;28.80;65.50;;;;;;5052476;28;20544;-62
2023/09/05 12:37:24;;;;;;;4.97;3.67;;;28.70;65.80;;;;;;5051927;28;20494;-54
2023/09/05 12:39:56;;;;;;;7.77;4.00;;;28.70;65.50;;;;;;5052512;28;21008;-61
2023/09/05 12:42:23;;;;;;;2.33;1.90;;;28.80;66.00;;;;;;5059069;28;20978;-61
2023/09/05 12:44:50;;;;;;;3.50;2.10;;;28.80;65.70;;;;;;5055572;28;20464;-61
2023/09/05 12:47:18;;;;;;;1.97;1.77;;;28.70;66.10;;;;;;5067907;28;20544;-61
2023/09/05 12:49:47;;;;;;;2.40;2.00;;;28.80;66.20;;;;;;5058513;28;20459;-62
2023/09/05 12:52:14;;;;;;;2.57;2.37;;;28.80;66.20;;;;;;5057918;28;20439;-61
2023/09/05 12:54:44;;;;;;;5.20;2.50;;;28.90;66.20;;;;;;5048264;28;20460;-62